Newmilns, United Kingdom
Current Conditions -  °F | °C
As of 9:20 PM on Saturday 25 Oct 2014 (Local Time) from EGPK Reporting Station
Scattered Clouds Scattered Clouds  
Wind Chill: 12°   Ceiling: Unl
Heat Index: 12°   Visibility: 6mi
Dew Point:   Wind: 17mph
Humidity: 72%   Direction: 210°SSW
Pressure: 29.74"   Gusts: NA
Location:  55.61°N, 4.32°W
Report Text: EGPK 252020Z 21015KT 9999 FEW015 SCT034 12/07 Q1007
Loading
Personal Weather Stations






























Interactive Weather Map
Tropical Storm Tracking
New forecast layout! Learn more

10-Day Weather Forecast

Advertisements
Track Severe Weather on mobile